createdAt,value
2023-02-27T00:01:41.167Z,100718.09
2023-02-27T00:06:43.883Z,100727.04
2023-02-27T00:11:46.768Z,100738.85
2023-02-27T00:16:49.501Z,100742.44
2023-02-27T00:21:52.779Z,100744.15
2023-02-27T00:26:55.483Z,100752.54
2023-02-27T00:31:58.793Z,100755.95
2023-02-27T00:37:01.596Z,100757.81
2023-02-27T00:42:04.549Z,100755.77
2023-02-27T00:47:07.451Z,100761.06
2023-02-27T00:52:11.224Z,100766.40
2023-02-27T00:57:14.054Z,100776.52
2023-02-27T01:02:17.390Z,100780.95
2023-02-27T01:07:20.155Z,100785.05
2023-02-27T01:12:23.044Z,100792.23
2023-02-27T01:17:25.853Z,100797.19
2023-02-27T01:22:28.658Z,100798.38
2023-02-27T01:27:32.281Z,100802.83
2023-02-27T01:32:35.124Z,100799.75
2023-02-27T01:37:38.168Z,100801.64
2023-02-27T01:42:41.061Z,100808.31
2023-02-27T01:47:52.502Z,100815.69
2023-02-27T01:52:58.989Z,100821.70
2023-02-27T01:58:01.698Z,100823.73
2023-02-27T02:03:25.926Z,100831.96
2023-02-27T02:08:32.072Z,100842.04
2023-02-27T02:13:35.430Z,100843.73
2023-02-27T02:18:46.280Z,100845.44
2023-02-27T02:24:08.013Z,100849.20
2023-02-27T02:29:38.815Z,100852.13
2023-02-27T02:35:00.173Z,100860.50
2023-02-27T02:40:16.821Z,100860.67
2023-02-27T02:45:38.376Z,100866.65
2023-02-27T02:51:04.626Z,100875.37
2023-02-27T02:56:23.294Z,100879.30
2023-02-27T03:01:35.476Z,100885.29
2023-02-27T03:06:43.417Z,100887.19
2023-02-27T03:11:50.676Z,100886.86
2023-02-27T03:16:58.163Z,100895.91
2023-02-27T03:22:09.567Z,100903.78
2023-02-27T03:27:13.191Z,100912.33
2023-02-27T03:32:25.226Z,100911.47
2023-02-27T03:37:52.376Z,100912.50
2023-02-27T03:43:06.203Z,100912.84
2023-02-27T03:48:09.240Z,100919.67
2023-02-27T03:53:23.819Z,100927.55
2023-02-27T03:58:26.822Z,100936.10
2023-02-27T04:03:33.095Z,100939.52
2023-02-27T04:09:04.983Z,100948.56
2023-02-27T04:14:29.400Z,100949.59
2023-02-27T04:19:44.083Z,100950.60
2023-02-27T04:25:06.269Z,100955.89
2023-02-27T04:30:42.902Z,100966.48
2023-02-27T04:35:53.956Z,100971.25
2023-02-27T04:41:09.850Z,100977.02
2023-02-27T04:46:16.551Z,100984.64
2023-02-27T04:51:25.203Z,100992.77
2023-02-27T04:56:34.428Z,100998.69
2023-02-27T05:01:42.127Z,101004.81
2023-02-27T05:06:48.177Z,101007.08
2023-02-27T05:11:59.702Z,101011.52
2023-02-27T05:17:09.080Z,101016.96
2023-02-27T05:22:25.191Z,101025.27
2023-02-27T05:27:37.687Z,101034.61
2023-02-27T05:32:49.237Z,101040.87
2023-02-27T05:38:05.411Z,101045.45
2023-02-27T05:43:22.990Z,101050.43
2023-02-27T05:49:11.676Z,101057.52
2023-02-27T05:54:24.941Z,101067.61
2023-02-27T05:59:53.766Z,101076.13
2023-02-27T06:04:56.624Z,101082.45
2023-02-27T06:09:59.397Z,101083.29
2023-02-27T06:15:02.178Z,101090.83
2023-02-27T06:20:06.972Z,101094.48
2023-02-27T06:25:10.214Z,101101.59
2023-02-27T06:30:14.057Z,101108.56
2023-02-27T06:35:17.116Z,101111.58
2023-02-27T06:40:19.923Z,101112.20
2023-02-27T06:45:24.410Z,101118.07
2023-02-27T06:50:27.682Z,101127.87
2023-02-27T06:55:30.478Z,101129.60
2023-02-27T07:00:33.569Z,101133.19
2023-02-27T07:05:36.546Z,101136.52
2023-02-27T07:10:40.168Z,101138.91
2023-02-27T07:15:44.741Z,101146.95
2023-02-27T07:20:50.220Z,101146.44
2023-02-27T07:25:52.931Z,101150.98
2023-02-27T07:30:56.398Z,101156.83
2023-02-27T07:35:59.819Z,101154.38
2023-02-27T07:41:02.773Z,101162.35
2023-02-27T07:46:05.788Z,101168.76
2023-02-27T07:51:08.886Z,101176.21
2023-02-27T07:56:11.869Z,101181.47
2023-02-27T08:01:15.098Z,101182.73
2023-02-27T08:06:18.105Z,101191.88
2023-02-27T08:11:20.878Z,101193.15
2023-02-27T08:16:23.660Z,101194.63
2023-02-27T08:21:29.095Z,101199.16
2023-02-27T08:26:32.325Z,101205.13
2023-02-27T08:31:35.220Z,101209.94
2023-02-27T08:36:39.272Z,101224.39
2023-02-27T08:41:42.037Z,101230.27
2023-02-27T08:46:45.228Z,101232.20
2023-02-27T08:51:47.910Z,101231.49
2023-02-27T08:56:50.706Z,101235.61
2023-02-27T09:01:53.670Z,101241.41
2023-02-27T09:06:58.088Z,101246.77
2023-02-27T09:12:00.757Z,101247.80
2023-02-27T09:17:03.662Z,101253.00
2023-02-27T09:22:06.477Z,101257.73
2023-02-27T09:27:09.279Z,101262.52
2023-02-27T09:32:12.696Z,101260.88
2023-02-27T09:37:16.565Z,101266.52
2023-02-27T09:42:24.619Z,101267.60
2023-02-27T09:47:37.385Z,101271.58
2023-02-27T09:52:40.189Z,101274.26
2023-02-27T09:57:52.101Z,101281.17
2023-02-27T10:02:58.839Z,101280.30
2023-02-27T10:08:40.208Z,101275.95
2023-02-27T10:13:50.686Z,101275.63
2023-02-27T10:19:06.297Z,101270.86
2023-02-27T10:24:34.344Z,101271.56
2023-02-27T10:29:41.721Z,101282.96
2023-02-27T10:34:54.031Z,101283.90
2023-02-27T10:40:01.251Z,101280.73
2023-02-27T10:45:05.942Z,101280.73
2023-02-27T10:50:27.209Z,101279.12
2023-02-27T10:55:33.079Z,101282.89
2023-02-27T11:00:45.304Z,101281.92
2023-02-27T11:06:00.721Z,101284.27
2023-02-27T11:11:07.179Z,101290.35
2023-02-27T11:16:15.410Z,101297.23
2023-02-27T11:21:20.521Z,101297.71
2023-02-27T11:26:36.353Z,101299.26
2023-02-27T11:31:39.985Z,101299.39
2023-02-27T11:36:46.625Z,101295.82
2023-02-27T11:41:50.199Z,101293.08
2023-02-27T11:47:08.588Z,101287.46
2023-02-27T11:52:20.994Z,101281.33
2023-02-27T11:57:38.651Z,101282.44
2023-02-27T12:02:53.467Z,101279.48
2023-02-27T12:08:06.680Z,101277.93
2023-02-27T12:13:21.335Z,101279.35
2023-02-27T12:18:28.568Z,101279.16
2023-02-27T12:23:41.718Z,101275.86
2023-02-27T12:28:44.520Z,101271.89
2023-02-27T12:34:01.770Z,101272.88
2023-02-27T12:39:05.510Z,101272.14
2023-02-27T12:44:33.267Z,101279.35
2023-02-27T12:49:56.529Z,101285.23
2023-02-27T12:55:06.216Z,101285.26
2023-02-27T13:00:15.170Z,101287.54
2023-02-27T13:05:33.028Z,101288.47
2023-02-27T13:11:13.019Z,101283.05
2023-02-27T13:16:25.972Z,101281.64
2023-02-27T13:21:51.472Z,101290.52
2023-02-27T13:27:24.230Z,101294.32
2023-02-27T13:32:46.778Z,101296.56
2023-02-27T13:38:32.530Z,101301.50
2023-02-27T13:43:51.128Z,101301.34
2023-02-27T13:49:28.080Z,101305.40
2023-02-27T13:54:33.990Z,101299.44
2023-02-27T13:59:41.902Z,101303.98
2023-02-27T14:04:50.949Z,101297.20
2023-02-27T14:10:04.394Z,101297.27
2023-02-27T14:15:30.545Z,101300.86
2023-02-27T14:20:33.233Z,101300.85
2023-02-27T14:25:40.145Z,101304.59
2023-02-27T14:30:51.486Z,101310.78
2023-02-27T14:36:04.321Z,101310.67
2023-02-27T14:41:12.653Z,101320.36
2023-02-27T14:46:35.237Z,101320.80
2023-02-27T14:51:38.637Z,101324.55
2023-02-27T14:56:52.895Z,101327.70
2023-02-27T15:01:58.429Z,101325.08
2023-02-27T15:07:01.562Z,101329.45
2023-02-27T15:12:05.107Z,101331.33
2023-02-27T15:17:23.125Z,101343.33
2023-02-27T15:22:38.882Z,101343.98
2023-02-27T15:27:42.610Z,101341.02
2023-02-27T15:32:45.335Z,101341.98
2023-02-27T15:37:55.030Z,101344.42
2023-02-27T15:42:59.558Z,101346.74
2023-02-27T15:48:04.105Z,101355.95
2023-02-27T15:53:25.525Z,101358.36
2023-02-27T15:58:37.614Z,101363.58
2023-02-27T16:03:45.048Z,101366.37
2023-02-27T16:09:01.665Z,101372.75
2023-02-27T16:14:06.162Z,101381.29
2023-02-27T16:19:27.414Z,101391.13
2023-02-27T16:24:32.032Z,101393.95
2023-02-27T16:29:37.267Z,101401.48
2023-02-27T16:34:45.488Z,101407.73
2023-02-27T16:39:52.285Z,101412.55
2023-02-27T16:44:55.126Z,101416.81
2023-02-27T16:49:58.350Z,101422.08
2023-02-27T16:55:01.524Z,101427.83
2023-02-27T17:00:08.955Z,101436.65
2023-02-27T17:05:11.774Z,101449.55
2023-02-27T17:10:17.108Z,101459.01
2023-02-27T17:15:21.031Z,101465.89
2023-02-27T17:20:26.180Z,101475.87
2023-02-27T17:25:29.189Z,101477.29
2023-02-27T17:30:31.962Z,101481.14
2023-02-27T17:35:34.884Z,101491.81
2023-02-27T17:40:39.391Z,101493.20
2023-02-27T17:45:42.316Z,101498.69
2023-02-27T17:50:45.338Z,101500.04
2023-02-27T17:55:48.353Z,101499.50
2023-02-27T18:00:51.162Z,101504.11
2023-02-27T18:05:53.895Z,101506.86
2023-02-27T18:10:56.655Z,101512.98
2023-02-27T18:15:59.448Z,101515.91
2023-02-27T18:21:05.307Z,101514.28
2023-02-27T18:26:17.196Z,101520.85
2023-02-27T18:31:30.397Z,101520.77
2023-02-27T18:36:34.368Z,101528.35
2023-02-27T18:41:37.923Z,101529.52
2023-02-27T18:46:42.507Z,101532.89
2023-02-27T18:51:45.484Z,101531.14
2023-02-27T18:56:51.099Z,101538.97
2023-02-27T19:01:55.210Z,101544.74
2023-02-27T19:06:57.925Z,101543.70
2023-02-27T19:12:01.004Z,101552.23
2023-02-27T19:17:04.315Z,101557.69
2023-02-27T19:22:07.112Z,101569.17
2023-02-27T19:27:10.822Z,101577.02
2023-02-27T19:32:14.827Z,101576.23
2023-02-27T19:37:17.825Z,101589.41
2023-02-27T19:42:20.575Z,101593.61
2023-02-27T19:47:24.004Z,101596.08
2023-02-27T19:52:26.905Z,101595.42
2023-02-27T19:57:29.636Z,101596.45
2023-02-27T20:02:32.721Z,101611.09
2023-02-27T20:07:35.605Z,101613.81
2023-02-27T20:12:38.317Z,101616.17
2023-02-27T20:17:42.185Z,101611.58
2023-02-27T20:22:44.968Z,101616.38
2023-02-27T20:27:48.237Z,101617.65
2023-02-27T20:32:51.087Z,101621.63
2023-02-27T20:37:54.154Z,101626.05
2023-02-27T20:42:57.674Z,101630.50
2023-02-27T20:48:00.351Z,101632.77
2023-02-27T20:53:03.141Z,101633.89
2023-02-27T20:58:05.947Z,101634.30
2023-02-27T21:03:08.712Z,101635.36
2023-02-27T21:08:11.556Z,101639.40
2023-02-27T21:13:14.684Z,101642.76
2023-02-27T21:18:17.377Z,101643.91
2023-02-27T21:23:20.068Z,101643.94
2023-02-27T21:28:23.192Z,101641.76
2023-02-27T21:33:26.554Z,101644.65
2023-02-27T21:38:30.135Z,101647.73
2023-02-27T21:43:34.079Z,101651.48
2023-02-27T21:48:37.789Z,101651.50
2023-02-27T21:53:40.578Z,101653.08
2023-02-27T21:58:43.268Z,101655.98
2023-02-27T22:03:47.615Z,101662.33
2023-02-27T22:08:58.614Z,101660.83
2023-02-27T22:14:01.820Z,101655.05
2023-02-27T22:19:09.840Z,101656.61
2023-02-27T22:24:12.566Z,101651.17
2023-02-27T22:29:15.533Z,101650.61
2023-02-27T22:34:19.215Z,101647.44
2023-02-27T22:39:22.289Z,101648.05
2023-02-27T22:44:25.083Z,101648.30
2023-02-27T22:49:27.792Z,101650.48
2023-02-27T22:54:30.784Z,101646.30
2023-02-27T22:59:33.587Z,101650.84
2023-02-27T23:04:36.390Z,101652.14
2023-02-27T23:09:39.185Z,101655.72
2023-02-27T23:14:42.136Z,101654.45
2023-02-27T23:19:46.031Z,101657.17
2023-02-27T23:24:48.820Z,101662.67
2023-02-27T23:29:51.622Z,101666.86
2023-02-27T23:34:54.303Z,101661.39
2023-02-27T23:39:57.019Z,101668.91
2023-02-27T23:44:59.767Z,101671.16
2023-02-27T23:50:02.617Z,101671.72
2023-02-27T23:55:06.778Z,101674.69
